sensor_id;sensor_type;location;lat;lon;timestamp;temperature;humidity
42365;DHT22;28498;54.400;18.566;2022-11-20T00:03:56;-2.10;99.90
42365;DHT22;28498;54.400;18.566;2022-11-20T00:06:26;-2.20;99.90
42365;DHT22;28498;54.400;18.566;2022-11-20T00:08:58;-2.20;99.90
42365;DHT22;28498;54.400;18.566;2022-11-20T00:11:28;-2.20;99.90
42365;DHT22;28498;54.400;18.566;2022-11-20T00:13:58;-2.30;99.90
42365;DHT22;28498;54.400;18.566;2022-11-20T00:16:27;-2.20;99.90
42365;DHT22;28498;54.400;18.566;2022-11-20T00:18:54;-2.20;99.90
42365;DHT22;28498;54.400;18.566;2022-11-20T00:21:24;-2.20;99.90
42365;DHT22;28498;54.400;18.566;2022-11-20T00:23:53;1.80;99.90
42365;DHT22;28498;54.400;18.566;2022-11-20T00:26:22;-2.20;99.90
42365;DHT22;28498;54.400;18.566;2022-11-20T00:29:00;-2.20;99.90
42365;DHT22;28498;54.400;18.566;2022-11-20T00:31:28;-2.20;99.90
42365;DHT22;28498;54.400;18.566;2022-11-20T00:36:25;-2.20;99.90
42365;DHT22;28498;54.400;18.566;2022-11-20T00:38:56;-2.40;99.90
42365;DHT22;28498;54.400;18.566;2022-11-20T00:41:24;-2.20;99.90
42365;DHT22;28498;54.400;18.566;2022-11-20T00:43:53;-2.20;99.90
42365;DHT22;28498;54.400;18.566;2022-11-20T00:46:22;-2.20;99.90
42365;DHT22;28498;54.400;18.566;2022-11-20T00:51:19;-2.20;99.90
42365;DHT22;28498;54.400;18.566;2022-11-20T00:56:16;-2.20;99.90
42365;DHT22;28498;54.400;18.566;2022-11-20T00:58:46;-2.20;99.90
42365;DHT22;28498;54.400;18.566;2022-11-20T01:01:18;-2.30;99.90
42365;DHT22;28498;54.400;18.566;2022-11-20T01:03:48;-2.20;99.90
42365;DHT22;28498;54.400;18.566;2022-11-20T01:06:18;-2.30;99.90
42365;DHT22;28498;54.400;18.566;2022-11-20T01:08:46;-2.40;99.90
42365;DHT22;28498;54.400;18.566;2022-11-20T01:11:25;-2.40;99.90
42365;DHT22;28498;54.400;18.566;2022-11-20T01:13:53;-2.60;99.90
42365;DHT22;28498;54.400;18.566;2022-11-20T01:16:26;-2.50;99.90
42365;DHT22;28498;54.400;18.566;2022-11-20T01:18:56;-2.60;99.90
42365;DHT22;28498;54.400;18.566;2022-11-20T01:21:30;-2.70;99.90
42365;DHT22;28498;54.400;18.566;2022-11-20T01:26:27;-2.70;99.90
42365;DHT22;28498;54.400;18.566;2022-11-20T01:28:55;-2.70;99.90
42365;DHT22;28498;54.400;18.566;2022-11-20T01:31:28;-2.60;99.90
42365;DHT22;28498;54.400;18.566;2022-11-20T01:33:57;-2.60;99.90
42365;DHT22;28498;54.400;18.566;2022-11-20T01:36:26;-2.60;99.90
42365;DHT22;28498;54.400;18.566;2022-11-20T01:38:54;-2.60;99.90
42365;DHT22;28498;54.400;18.566;2022-11-20T01:41:22;-2.60;99.90
42365;DHT22;28498;54.400;18.566;2022-11-20T01:46:37;-2.70;99.90
42365;DHT22;28498;54.400;18.566;2022-11-20T01:49:20;-2.70;99.90
42365;DHT22;28498;54.400;18.566;2022-11-20T01:52:07;-2.70;99.90
42365;DHT22;28498;54.400;18.566;2022-11-20T01:54:52;-2.80;99.90
42365;DHT22;28498;54.400;18.566;2022-11-20T01:57:23;-2.70;99.90
42365;DHT22;28498;54.400;18.566;2022-11-20T02:00:00;-2.70;99.90
42365;DHT22;28498;54.400;18.566;2022-11-20T02:04:58;-2.70;99.90
42365;DHT22;28498;54.400;18.566;2022-11-20T02:07:27;-2.70;99.90
42365;DHT22;28498;54.400;18.566;2022-11-20T02:09:55;-2.50;99.90
42365;DHT22;28498;54.400;18.566;2022-11-20T02:17:42;-2.50;99.90
42365;DHT22;28498;54.400;18.566;2022-11-20T02:20:09;-2.50;99.90
42365;DHT22;28498;54.400;18.566;2022-11-20T02:22:46;-2.40;99.90
42365;DHT22;28498;54.400;18.566;2022-11-20T02:25:15;-2.40;99.90
42365;DHT22;28498;54.400;18.566;2022-11-20T02:27:43;-2.30;99.90
42365;DHT22;28498;54.400;18.566;2022-11-20T02:30:10;-2.30;99.90
42365;DHT22;28498;54.400;18.566;2022-11-20T02:32:39;-2.30;99.90
42365;DHT22;28498;54.400;18.566;2022-11-20T02:37:37;-2.30;99.90
42365;DHT22;28498;54.400;18.566;2022-11-20T02:40:05;-2.30;99.90
42365;DHT22;28498;54.400;18.566;2022-11-20T02:42:32;-2.30;99.90
42365;DHT22;28498;54.400;18.566;2022-11-20T02:44:59;-2.30;99.90
42365;DHT22;28498;54.400;18.566;2022-11-20T02:47:26;-2.20;99.90
42365;DHT22;28498;54.400;18.566;2022-11-20T02:49:53;-2.20;99.90
42365;DHT22;28498;54.400;18.566;2022-11-20T02:52:20;-2.50;99.90
42365;DHT22;28498;54.400;18.566;2022-11-20T03:02:10;-2.10;99.90
42365;DHT22;28498;54.400;18.566;2022-11-20T03:04:37;-2.20;99.90
42365;DHT22;28498;54.400;18.566;2022-11-20T03:07:04;-2.20;99.90
42365;DHT22;28498;54.400;18.566;2022-11-20T03:09:31;-2.20;99.90
42365;DHT22;28498;54.400;18.566;2022-11-20T03:14:25;-2.10;99.90
42365;DHT22;28498;54.400;18.566;2022-11-20T03:16:52;-2.10;99.90
42365;DHT22;28498;54.400;18.566;2022-11-20T03:19:19;-2.20;99.90
42365;DHT22;28498;54.400;18.566;2022-11-20T03:21:46;-2.30;99.90
42365;DHT22;28498;54.400;18.566;2022-11-20T03:24:14;-2.20;99.90
42365;DHT22;28498;54.400;18.566;2022-11-20T03:26:41;-2.20;99.90
42365;DHT22;28498;54.400;18.566;2022-11-20T03:29:08;-2.20;99.90
42365;DHT22;28498;54.400;18.566;2022-11-20T03:31:38;1.10;99.90
42365;DHT22;28498;54.400;18.566;2022-11-20T03:34:08;-2.20;99.90
42365;DHT22;28498;54.400;18.566;2022-11-20T03:36:40;-2.40;99.90
42365;DHT22;28498;54.400;18.566;2022-11-20T03:39:08;-2.20;99.90
42365;DHT22;28498;54.400;18.566;2022-11-20T03:41:39;-2.30;99.90
42365;DHT22;28498;54.400;18.566;2022-11-20T03:44:09;-2.30;99.90
42365;DHT22;28498;54.400;18.566;2022-11-20T03:49:03;-2.30;99.90
42365;DHT22;28498;54.400;18.566;2022-11-20T03:51:32;-2.20;99.90
42365;DHT22;28498;54.400;18.566;2022-11-20T03:54:02;-2.30;99.90
42365;DHT22;28498;54.400;18.566;2022-11-20T03:56:32;-2.30;99.90
42365;DHT22;28498;54.400;18.566;2022-11-20T03:58:59;-2.30;99.90
42365;DHT22;28498;54.400;18.566;2022-11-20T04:01:32;-2.20;99.90
42365;DHT22;28498;54.400;18.566;2022-11-20T04:03:59;-2.20;99.90
42365;DHT22;28498;54.400;18.566;2022-11-20T04:06:30;-2.20;99.90
42365;DHT22;28498;54.400;18.566;2022-11-20T04:11:30;-2.20;99.90
42365;DHT22;28498;54.400;18.566;2022-11-20T04:14:00;-2.30;99.90
42365;DHT22;28498;54.400;18.566;2022-11-20T04:16:30;-2.20;99.90
42365;DHT22;28498;54.400;18.566;2022-11-20T04:18:59;-2.20;99.90
42365;DHT22;28498;54.400;18.566;2022-11-20T04:21:27;-2.20;99.90
42365;DHT22;28498;54.400;18.566;2022-11-20T04:23:54;-2.20;99.90
42365;DHT22;28498;54.400;18.566;2022-11-20T04:26:23;-2.20;99.90
42365;DHT22;28498;54.400;18.566;2022-11-20T04:28:51;-2.10;99.90
42365;DHT22;28498;54.400;18.566;2022-11-20T04:31:20;-2.20;99.90
42365;DHT22;28498;54.400;18.566;2022-11-20T04:33:48;-2.20;99.90
42365;DHT22;28498;54.400;18.566;2022-11-20T04:36:17;-2.20;99.90
42365;DHT22;28498;54.400;18.566;2022-11-20T04:38:45;-2.20;99.90
42365;DHT22;28498;54.400;18.566;2022-11-20T04:41:17;-2.20;99.90
42365;DHT22;28498;54.400;18.566;2022-11-20T04:43:48;-2.20;99.90
42365;DHT22;28498;54.400;18.566;2022-11-20T04:46:17;-2.20;99.90
42365;DHT22;28498;54.400;18.566;2022-11-20T04:53:39;-2.20;99.90
42365;DHT22;28498;54.400;18.566;2022-11-20T04:56:08;-2.20;99.90
42365;DHT22;28498;54.400;18.566;2022-11-20T05:01:13;-2.30;99.90
42365;DHT22;28498;54.400;18.566;2022-11-20T05:03:42;-2.30;99.90
42365;DHT22;28498;54.400;18.566;2022-11-20T05:06:11;-2.40;99.90
42365;DHT22;28498;54.400;18.566;2022-11-20T05:11:11;-2.80;99.90
42365;DHT22;28498;54.400;18.566;2022-11-20T05:13:39;-2.80;99.90
42365;DHT22;28498;54.400;18.566;2022-11-20T05:16:17;-3.00;99.90
42365;DHT22;28498;54.400;18.566;2022-11-20T05:26:16;-3.50;99.90
42365;DHT22;28498;54.400;18.566;2022-11-20T05:31:13;-3.70;99.90
42365;DHT22;28498;54.400;18.566;2022-11-20T05:33:42;-3.80;99.90
42365;DHT22;28498;54.400;18.566;2022-11-20T05:36:10;-3.90;99.90
42365;DHT22;28498;54.400;18.566;2022-11-20T05:41:10;-4.00;99.90
42365;DHT22;28498;54.400;18.566;2022-11-20T05:43:39;-3.90;99.90
42365;DHT22;28498;54.400;18.566;2022-11-20T05:46:08;-4.00;99.90
42365;DHT22;28498;54.400;18.566;2022-11-20T05:48:37;-4.20;99.90
42365;DHT22;28498;54.400;18.566;2022-11-20T05:51:06;-4.10;99.90
42365;DHT22;28498;54.400;18.566;2022-11-20T05:53:34;-4.20;99.90
42365;DHT22;28498;54.400;18.566;2022-11-20T05:56:04;-4.30;99.90
42365;DHT22;28498;54.400;18.566;2022-11-20T06:01:13;-4.50;99.90
42365;DHT22;28498;54.400;18.566;2022-11-20T06:03:41;-4.60;99.90
42365;DHT22;28498;54.400;18.566;2022-11-20T06:11:09;-4.50;99.90
42365;DHT22;28498;54.400;18.566;2022-11-20T06:21:07;-4.60;99.90
42365;DHT22;28498;54.400;18.566;2022-11-20T06:23:35;-4.70;99.90
42365;DHT22;28498;54.400;18.566;2022-11-20T06:26:07;-4.70;99.90
42365;DHT22;28498;54.400;18.566;2022-11-20T06:31:03;-4.90;99.90
42365;DHT22;28498;54.400;18.566;2022-11-20T06:35:59;-5.10;99.90
42365;DHT22;28498;54.400;18.566;2022-11-20T06:43:28;-5.20;99.90
42365;DHT22;28498;54.400;18.566;2022-11-20T06:45:57;-5.10;99.90
42365;DHT22;28498;54.400;18.566;2022-11-20T06:48:26;-5.20;99.90
42365;DHT22;28498;54.400;18.566;2022-11-20T06:55:51;-5.10;99.90
42365;DHT22;28498;54.400;18.566;2022-11-20T07:08:08;-4.50;99.90
42365;DHT22;28498;54.400;18.566;2022-11-20T07:18:00;-4.00;99.90
42365;DHT22;28498;54.400;18.566;2022-11-20T07:20:28;-3.70;99.90
42365;DHT22;28498;54.400;18.566;2022-11-20T07:32:51;-3.10;99.90
42365;DHT22;28498;54.400;18.566;2022-11-20T07:35:19;-3.00;99.90
42365;DHT22;28498;54.400;18.566;2022-11-20T07:42:48;-2.70;99.90
42365;DHT22;28498;54.400;18.566;2022-11-20T07:45:20;-2.70;99.90
42365;DHT22;28498;54.400;18.566;2022-11-20T08:00:07;-2.30;99.90
42365;DHT22;28498;54.400;18.566;2022-11-20T08:02:39;-2.10;99.90
42365;DHT22;28498;54.400;18.566;2022-11-20T08:05:06;-2.00;99.90
42365;DHT22;28498;54.400;18.566;2022-11-20T08:07:38;-1.90;99.90
42365;DHT22;28498;54.400;18.566;2022-11-20T08:10:06;-1.80;99.90
42365;DHT22;28498;54.400;18.566;2022-11-20T08:12:34;-1.70;99.90
42365;DHT22;28498;54.400;18.566;2022-11-20T08:15:19;-1.90;99.90
42365;DHT22;28498;54.400;18.566;2022-11-20T08:17:46;-1.80;99.90
42365;DHT22;28498;54.400;18.566;2022-11-20T08:20:34;-1.80;99.90
42365;DHT22;28498;54.400;18.566;2022-11-20T08:23:03;-1.70;99.90
42365;DHT22;28498;54.400;18.566;2022-11-20T08:25:33;-1.70;99.90
42365;DHT22;28498;54.400;18.566;2022-11-20T08:28:02;-1.60;99.90
42365;DHT22;28498;54.400;18.566;2022-11-20T08:30:44;-1.60;99.90
42365;DHT22;28498;54.400;18.566;2022-11-20T08:33:12;-1.30;99.90
42365;DHT22;28498;54.400;18.566;2022-11-20T08:35:39;1.90;99.90
42365;DHT22;28498;54.400;18.566;2022-11-20T08:44:22;-1.30;99.90
42365;DHT22;28498;54.400;18.566;2022-11-20T08:46:49;-1.40;99.90
42365;DHT22;28498;54.400;18.566;2022-11-20T08:49:16;-1.10;99.90
42365;DHT22;28498;54.400;18.566;2022-11-20T08:51:44;-1.10;99.90
42365;DHT22;28498;54.400;18.566;2022-11-20T08:54:13;-0.90;99.90
42365;DHT22;28498;54.400;18.566;2022-11-20T08:56:40;-0.90;99.90
42365;DHT22;28498;54.400;18.566;2022-11-20T08:59:07;-0.80;99.90
42365;DHT22;28498;54.400;18.566;2022-11-20T09:01:54;-0.80;99.90
42365;DHT22;28498;54.400;18.566;2022-11-20T09:04:21;-0.70;99.90
42365;DHT22;28498;54.400;18.566;2022-11-20T09:06:47;-0.60;99.90
42365;DHT22;28498;54.400;18.566;2022-11-20T09:09:17;-0.70;99.90
42365;DHT22;28498;54.400;18.566;2022-11-20T09:11:45;1.70;99.90
42365;DHT22;28498;54.400;18.566;2022-11-20T09:14:12;-0.80;99.90
42365;DHT22;28498;54.400;18.566;2022-11-20T09:16:39;-0.90;99.90
42365;DHT22;28498;54.400;18.566;2022-11-20T09:22:54;-0.90;99.90
42365;DHT22;28498;54.400;18.566;2022-11-20T09:25:22;-0.80;99.90
42365;DHT22;28498;54.400;18.566;2022-11-20T09:27:55;-0.70;99.90
42365;DHT22;28498;54.400;18.566;2022-11-20T09:30:22;-0.60;99.90
42365;DHT22;28498;54.400;18.566;2022-11-20T09:32:49;-0.50;99.90
42365;DHT22;28498;54.400;18.566;2022-11-20T09:35:16;-0.50;99.90
42365;DHT22;28498;54.400;18.566;2022-11-20T09:37:44;-0.50;99.90
42365;DHT22;28498;54.400;18.566;2022-11-20T09:40:28;-0.50;99.90
42365;DHT22;28498;54.400;18.566;2022-11-20T09:43:03;-0.50;99.90
42365;DHT22;28498;54.400;18.566;2022-11-20T09:48:29;-0.50;99.90
42365;DHT22;28498;54.400;18.566;2022-11-20T09:53:34;-0.50;99.90
42365;DHT22;28498;54.400;18.566;2022-11-20T09:56:03;-0.50;99.90
42365;DHT22;28498;54.400;18.566;2022-11-20T09:58:38;-0.50;99.90
42365;DHT22;28498;54.400;18.566;2022-11-20T10:01:17;0.30;99.90
42365;DHT22;28498;54.400;18.566;2022-11-20T10:09:53;-0.50;99.90
42365;DHT22;28498;54.400;18.566;2022-11-20T10:15:41;-0.60;99.90
42365;DHT22;28498;54.400;18.566;2022-11-20T10:21:08;-0.60;99.90
42365;DHT22;28498;54.400;18.566;2022-11-20T10:29:12;-0.30;99.90
42365;DHT22;28498;54.400;18.566;2022-11-20T10:31:45;-0.40;99.90
42365;DHT22;28498;54.400;18.566;2022-11-20T10:34:23;-0.20;99.90
42365;DHT22;28498;54.400;18.566;2022-11-20T10:37:06;-0.30;99.90
42365;DHT22;28498;54.400;18.566;2022-11-20T10:40:22;-0.10;99.90
42365;DHT22;28498;54.400;18.566;2022-11-20T10:43:00;0.00;99.90
42365;DHT22;28498;54.400;18.566;2022-11-20T10:45:57;-0.20;99.90
42365;DHT22;28498;54.400;18.566;2022-11-20T10:48:27;-0.10;99.90
42365;DHT22;28498;54.400;18.566;2022-11-20T10:53:33;-0.20;99.90
42365;DHT22;28498;54.400;18.566;2022-11-20T10:56:20;-0.30;99.90
42365;DHT22;28498;54.400;18.566;2022-11-20T11:03:52;-0.10;99.90
42365;DHT22;28498;54.400;18.566;2022-11-20T11:06:42;0.10;99.90
42365;DHT22;28498;54.400;18.566;2022-11-20T11:09:16;0.20;99.90
42365;DHT22;28498;54.400;18.566;2022-11-20T11:11:46;0.30;99.90
42365;DHT22;28498;54.400;18.566;2022-11-20T11:14:15;0.40;99.90
42365;DHT22;28498;54.400;18.566;2022-11-20T11:16:53;0.30;99.90
42365;DHT22;28498;54.400;18.566;2022-11-20T11:19:20;0.40;99.90
42365;DHT22;28498;54.400;18.566;2022-11-20T11:21:51;0.20;99.90
42365;DHT22;28498;54.400;18.566;2022-11-20T11:24:26;-0.10;99.90
42365;DHT22;28498;54.400;18.566;2022-11-20T11:27:13;0.00;99.90
42365;DHT22;28498;54.400;18.566;2022-11-20T11:32:18;0.40;99.90
42365;DHT22;28498;54.400;18.566;2022-11-20T11:37:19;0.70;99.90
42365;DHT22;28498;54.400;18.566;2022-11-20T11:39:48;0.60;99.90
42365;DHT22;28498;54.400;18.566;2022-11-20T11:42:47;0.50;99.90
42365;DHT22;28498;54.400;18.566;2022-11-20T11:45:17;0.10;99.90
42365;DHT22;28498;54.400;18.566;2022-11-20T11:47:45;-0.20;99.90
42365;DHT22;28498;54.400;18.566;2022-11-20T11:50:21;-0.10;99.90
42365;DHT22;28498;54.400;18.566;2022-11-20T11:53:12;-0.10;99.90
42365;DHT22;28498;54.400;18.566;2022-11-20T12:04:05;-0.20;99.90
42365;DHT22;28498;54.400;18.566;2022-11-20T12:06:36;-0.20;99.90
42365;DHT22;28498;54.400;18.566;2022-11-20T12:09:09;-0.30;99.90
42365;DHT22;28498;54.400;18.566;2022-11-20T12:12:02;-0.50;99.90
42365;DHT22;28498;54.400;18.566;2022-11-20T12:14:39;-0.40;99.90
42365;DHT22;28498;54.400;18.566;2022-11-20T12:17:10;-0.40;99.90
42365;DHT22;28498;54.400;18.566;2022-11-20T12:19:37;-0.30;99.90
42365;DHT22;28498;54.400;18.566;2022-11-20T12:28:01;-0.40;99.90
42365;DHT22;28498;54.400;18.566;2022-11-20T12:30:33;-0.40;99.90
42365;DHT22;28498;54.400;18.566;2022-11-20T12:33:12;-0.40;99.90
42365;DHT22;28498;54.400;18.566;2022-11-20T12:41:27;-0.10;99.90
42365;DHT22;28498;54.400;18.566;2022-11-20T12:57:18;-0.20;99.90
42365;DHT22;28498;54.400;18.566;2022-11-20T13:08:24;-0.30;99.90
42365;DHT22;28498;54.400;18.566;2022-11-20T13:10:59;-0.40;99.90
42365;DHT22;28498;54.400;18.566;2022-11-20T13:13:42;-0.40;99.90
42365;DHT22;28498;54.400;18.566;2022-11-20T13:18:51;-0.50;99.90
42365;DHT22;28498;54.400;18.566;2022-11-20T13:21:23;-0.50;99.90
42365;DHT22;28498;54.400;18.566;2022-11-20T13:24:05;-0.50;99.90
42365;DHT22;28498;54.400;18.566;2022-11-20T13:26:32;-0.40;99.90
42365;DHT22;28498;54.400;18.566;2022-11-20T13:29:26;-0.40;99.90
42365;DHT22;28498;54.400;18.566;2022-11-20T13:32:06;-0.50;99.90
42365;DHT22;28498;54.400;18.566;2022-11-20T13:34:34;-0.50;99.90
42365;DHT22;28498;54.400;18.566;2022-11-20T13:37:02;-0.50;99.90
42365;DHT22;28498;54.400;18.566;2022-11-20T13:39:34;-0.50;99.90
42365;DHT22;28498;54.400;18.566;2022-11-20T13:44:39;-0.50;99.90
42365;DHT22;28498;54.400;18.566;2022-11-20T13:47:24;-0.50;99.90
42365;DHT22;28498;54.400;18.566;2022-11-20T13:49:52;-0.40;99.90
42365;DHT22;28498;54.400;18.566;2022-11-20T13:52:31;-0.50;99.90
42365;DHT22;28498;54.400;18.566;2022-11-20T14:00:12;-0.60;99.90
42365;DHT22;28498;54.400;18.566;2022-11-20T14:02:40;-0.60;99.90
42365;DHT22;28498;54.400;18.566;2022-11-20T14:05:19;-0.60;99.90
42365;DHT22;28498;54.400;18.566;2022-11-20T14:07:47;-0.60;99.90
42365;DHT22;28498;54.400;18.566;2022-11-20T14:10:25;-0.60;99.90
42365;DHT22;28498;54.400;18.566;2022-11-20T14:12:58;-0.60;99.90
42365;DHT22;28498;54.400;18.566;2022-11-20T14:17:52;-0.70;99.90
42365;DHT22;28498;54.400;18.566;2022-11-20T14:20:19;-0.60;99.90
42365;DHT22;28498;54.400;18.566;2022-11-20T14:22:50;-0.60;99.90
42365;DHT22;28498;54.400;18.566;2022-11-20T14:27:50;-0.60;99.90
42365;DHT22;28498;54.400;18.566;2022-11-20T14:30:21;-0.70;99.90
42365;DHT22;28498;54.400;18.566;2022-11-20T14:32:49;-0.70;99.90
42365;DHT22;28498;54.400;18.566;2022-11-20T14:35:24;-0.70;99.90
42365;DHT22;28498;54.400;18.566;2022-11-20T14:37:52;-0.70;99.90
42365;DHT22;28498;54.400;18.566;2022-11-20T14:42:58;-0.60;99.90
42365;DHT22;28498;54.400;18.566;2022-11-20T14:45:26;-0.70;99.90
42365;DHT22;28498;54.400;18.566;2022-11-20T14:47:55;-0.70;99.90
42365;DHT22;28498;54.400;18.566;2022-11-20T14:50:28;-0.60;99.90
42365;DHT22;28498;54.400;18.566;2022-11-20T14:53:00;-0.70;99.90
42365;DHT22;28498;54.400;18.566;2022-11-20T14:55:30;-0.70;99.90
42365;DHT22;28498;54.400;18.566;2022-11-20T14:58:03;-0.70;99.90
42365;DHT22;28498;54.400;18.566;2022-11-20T15:00:32;-0.70;99.90
42365;DHT22;28498;54.400;18.566;2022-11-20T15:02:59;-0.30;99.90
42365;DHT22;28498;54.400;18.566;2022-11-20T15:05:44;-0.40;99.90
42365;DHT22;28498;54.400;18.566;2022-11-20T15:08:13;-0.50;99.90
42365;DHT22;28498;54.400;18.566;2022-11-20T15:10:46;1.60;99.90
42365;DHT22;28498;54.400;18.566;2022-11-20T15:13:40;-0.60;99.90
42365;DHT22;28498;54.400;18.566;2022-11-20T15:16:18;-0.60;99.90
42365;DHT22;28498;54.400;18.566;2022-11-20T15:18:45;-0.70;99.90
42365;DHT22;28498;54.400;18.566;2022-11-20T15:21:15;-0.70;99.90
42365;DHT22;28498;54.400;18.566;2022-11-20T15:23:43;-0.70;99.90
42365;DHT22;28498;54.400;18.566;2022-11-20T15:26:11;-0.70;99.90
42365;DHT22;28498;54.400;18.566;2022-11-20T15:28:47;-0.80;99.90
42365;DHT22;28498;54.400;18.566;2022-11-20T15:31:16;-0.20;99.90
42365;DHT22;28498;54.400;18.566;2022-11-20T15:33:43;-0.70;99.90
42365;DHT22;28498;54.400;18.566;2022-11-20T15:36:10;-0.80;99.90
42365;DHT22;28498;54.400;18.566;2022-11-20T15:38:37;-0.80;99.90
42365;DHT22;28498;54.400;18.566;2022-11-20T15:41:04;-0.80;99.90
42365;DHT22;28498;54.400;18.566;2022-11-20T15:43:31;-0.80;99.90
42365;DHT22;28498;54.400;18.566;2022-11-20T15:46:00;-0.70;99.90
42365;DHT22;28498;54.400;18.566;2022-11-20T15:48:41;-0.80;99.90
42365;DHT22;28498;54.400;18.566;2022-11-20T15:51:29;-0.80;99.90
42365;DHT22;28498;54.400;18.566;2022-11-20T15:53:57;-0.80;99.90
42365;DHT22;28498;54.400;18.566;2022-11-20T15:56:25;-0.80;99.90
42365;DHT22;28498;54.400;18.566;2022-11-20T15:58:52;-0.80;99.90
42365;DHT22;28498;54.400;18.566;2022-11-20T16:01:21;-0.80;99.90
42365;DHT22;28498;54.400;18.566;2022-11-20T16:03:48;-0.90;99.90
42365;DHT22;28498;54.400;18.566;2022-11-20T16:06:15;-0.80;99.90
42365;DHT22;28498;54.400;18.566;2022-11-20T16:08:43;-0.90;99.90
42365;DHT22;28498;54.400;18.566;2022-11-20T16:11:15;-0.90;99.90
42365;DHT22;28498;54.400;18.566;2022-11-20T16:13:42;-0.90;99.90
42365;DHT22;28498;54.400;18.566;2022-11-20T16:16:32;-0.80;99.90
42365;DHT22;28498;54.400;18.566;2022-11-20T16:19:00;-0.90;99.90
42365;DHT22;28498;54.400;18.566;2022-11-20T16:21:27;-0.80;99.90
42365;DHT22;28498;54.400;18.566;2022-11-20T16:23:59;-0.90;99.90
42365;DHT22;28498;54.400;18.566;2022-11-20T16:26:26;-0.90;99.90
42365;DHT22;28498;54.400;18.566;2022-11-20T16:28:54;-0.80;99.90
42365;DHT22;28498;54.400;18.566;2022-11-20T16:31:21;-1.00;99.90
42365;DHT22;28498;54.400;18.566;2022-11-20T16:33:53;-1.00;99.90
42365;DHT22;28498;54.400;18.566;2022-11-20T16:36:23;-1.00;99.90
42365;DHT22;28498;54.400;18.566;2022-11-20T16:38:54;-1.00;99.90
42365;DHT22;28498;54.400;18.566;2022-11-20T16:41:22;-1.00;99.90
42365;DHT22;28498;54.400;18.566;2022-11-20T16:43:54;-1.10;99.90
42365;DHT22;28498;54.400;18.566;2022-11-20T16:46:26;-1.20;99.90
42365;DHT22;28498;54.400;18.566;2022-11-20T16:48:54;-1.20;99.90
42365;DHT22;28498;54.400;18.566;2022-11-20T16:51:22;-1.30;99.90
42365;DHT22;28498;54.400;18.566;2022-11-20T16:53:50;-1.20;99.90
42365;DHT22;28498;54.400;18.566;2022-11-20T16:56:19;-0.80;99.90
42365;DHT22;28498;54.400;18.566;2022-11-20T16:58:47;-1.00;99.90
42365;DHT22;28498;54.400;18.566;2022-11-20T17:01:17;-1.20;99.90
42365;DHT22;28498;54.400;18.566;2022-11-20T17:03:54;-1.30;99.90
42365;DHT22;28498;54.400;18.566;2022-11-20T17:06:24;-1.30;99.90
42365;DHT22;28498;54.400;18.566;2022-11-20T17:08:53;-1.20;99.90
42365;DHT22;28498;54.400;18.566;2022-11-20T17:11:20;-1.50;99.90
42365;DHT22;28498;54.400;18.566;2022-11-20T17:13:48;-1.30;99.90
42365;DHT22;28498;54.400;18.566;2022-11-20T17:16:18;-1.40;99.90
42365;DHT22;28498;54.400;18.566;2022-11-20T17:18:45;-1.40;99.90
42365;DHT22;28498;54.400;18.566;2022-11-20T17:21:12;-1.50;99.90
42365;DHT22;28498;54.400;18.566;2022-11-20T17:23:41;-1.40;99.90
42365;DHT22;28498;54.400;18.566;2022-11-20T17:26:10;-1.40;99.90
42365;DHT22;28498;54.400;18.566;2022-11-20T17:28:40;-1.40;99.90
42365;DHT22;28498;54.400;18.566;2022-11-20T17:31:09;-1.40;99.90
42365;DHT22;28498;54.400;18.566;2022-11-20T17:33:38;-1.40;99.90
42365;DHT22;28498;54.400;18.566;2022-11-20T17:36:06;-1.40;99.90
42365;DHT22;28498;54.400;18.566;2022-11-20T17:38:34;-1.50;99.90
42365;DHT22;28498;54.400;18.566;2022-11-20T17:41:12;-1.40;99.90
42365;DHT22;28498;54.400;18.566;2022-11-20T17:46:19;-1.40;99.90
42365;DHT22;28498;54.400;18.566;2022-11-20T17:48:47;-1.30;99.90
42365;DHT22;28498;54.400;18.566;2022-11-20T17:51:16;-1.30;99.90
42365;DHT22;28498;54.400;18.566;2022-11-20T17:53:45;-1.40;99.90
42365;DHT22;28498;54.400;18.566;2022-11-20T17:58:59;-1.50;99.90
42365;DHT22;28498;54.400;18.566;2022-11-20T18:01:26;-1.60;99.90
42365;DHT22;28498;54.400;18.566;2022-11-20T18:03:55;-1.70;99.90
42365;DHT22;28498;54.400;18.566;2022-11-20T18:06:24;-1.60;99.90
42365;DHT22;28498;54.400;18.566;2022-11-20T18:08:52;-1.60;99.90
42365;DHT22;28498;54.400;18.566;2022-11-20T18:11:25;-1.70;99.90
42365;DHT22;28498;54.400;18.566;2022-11-20T18:13:55;-1.60;99.90
42365;DHT22;28498;54.400;18.566;2022-11-20T18:16:44;-1.60;99.90
42365;DHT22;28498;54.400;18.566;2022-11-20T18:19:14;-1.50;99.90
42365;DHT22;28498;54.400;18.566;2022-11-20T18:21:41;-1.40;99.90
42365;DHT22;28498;54.400;18.566;2022-11-20T18:24:09;-1.40;99.90
42365;DHT22;28498;54.400;18.566;2022-11-20T18:26:36;-1.40;99.90
42365;DHT22;28498;54.400;18.566;2022-11-20T18:31:37;-1.40;99.90
42365;DHT22;28498;54.400;18.566;2022-11-20T18:34:04;-1.30;99.90
42365;DHT22;28498;54.400;18.566;2022-11-20T18:36:32;-1.30;99.90
42365;DHT22;28498;54.400;18.566;2022-11-20T18:38:59;-1.30;99.90
42365;DHT22;28498;54.400;18.566;2022-11-20T18:41:29;-1.30;99.90
42365;DHT22;28498;54.400;18.566;2022-11-20T18:44:20;-1.20;99.90
42365;DHT22;28498;54.400;18.566;2022-11-20T18:47:07;2.20;99.90
42365;DHT22;28498;54.400;18.566;2022-11-20T18:49:40;-1.20;99.90
42365;DHT22;28498;54.400;18.566;2022-11-20T18:54:35;-1.40;99.90
42365;DHT22;28498;54.400;18.566;2022-11-20T18:57:03;-1.20;99.90
42365;DHT22;28498;54.400;18.566;2022-11-20T18:59:30;-1.30;99.90
42365;DHT22;28498;54.400;18.566;2022-11-20T19:01:58;-1.30;99.90
42365;DHT22;28498;54.400;18.566;2022-11-20T19:04:25;-1.30;99.90
42365;DHT22;28498;54.400;18.566;2022-11-20T19:06:52;-1.30;99.90
42365;DHT22;28498;54.400;18.566;2022-11-20T19:09:22;-1.40;99.90
42365;DHT22;28498;54.400;18.566;2022-11-20T19:11:50;-1.40;99.90
42365;DHT22;28498;54.400;18.566;2022-11-20T19:14:17;-1.50;99.90
42365;DHT22;28498;54.400;18.566;2022-11-20T19:16:44;-1.50;99.90
42365;DHT22;28498;54.400;18.566;2022-11-20T19:19:11;-1.50;99.90
42365;DHT22;28498;54.400;18.566;2022-11-20T19:21:38;-0.40;99.90
42365;DHT22;28498;54.400;18.566;2022-11-20T19:24:07;-1.70;99.90
42365;DHT22;28498;54.400;18.566;2022-11-20T19:26:36;-1.80;99.90
42365;DHT22;28498;54.400;18.566;2022-11-20T19:29:04;-1.90;99.90
42365;DHT22;28498;54.400;18.566;2022-11-20T19:31:31;-1.90;99.90
42365;DHT22;28498;54.400;18.566;2022-11-20T19:34:00;-2.00;99.90
42365;DHT22;28498;54.400;18.566;2022-11-20T19:42:42;-2.10;99.90
42365;DHT22;28498;54.400;18.566;2022-11-20T19:45:09;-2.10;99.90
42365;DHT22;28498;54.400;18.566;2022-11-20T19:50:24;-2.00;99.90
42365;DHT22;28498;54.400;18.566;2022-11-20T19:55:24;-1.90;99.90
42365;DHT22;28498;54.400;18.566;2022-11-20T19:57:52;-1.90;99.90
42365;DHT22;28498;54.400;18.566;2022-11-20T20:04:06;-1.90;99.90
42365;DHT22;28498;54.400;18.566;2022-11-20T20:06:34;-1.90;99.90
42365;DHT22;28498;54.400;18.566;2022-11-20T20:09:05;-1.90;99.90